sensor_id;sensor_type;location;lat;lon;timestamp;P1;durP1;ratioP1;P2;durP2;ratioP2
26042;SDS011;13818;52.156;5.382;2023-04-19T00:02:00;17.58;;;6.82;;
26042;SDS011;13818;52.156;5.382;2023-04-19T00:04:27;12.32;;;5.68;;
26042;SDS011;13818;52.156;5.382;2023-04-19T00:06:54;12.70;;;6.05;;
26042;SDS011;13818;52.156;5.382;2023-04-19T00:09:20;13.27;;;6.25;;
26042;SDS011;13818;52.156;5.382;2023-04-19T00:11:47;16.95;;;6.35;;
26042;SDS011;13818;52.156;5.382;2023-04-19T00:14:13;12.77;;;5.95;;
26042;SDS011;13818;52.156;5.382;2023-04-19T00:16:40;13.52;;;6.70;;
26042;SDS011;13818;52.156;5.382;2023-04-19T00:19:08;15.65;;;6.25;;
26042;SDS011;13818;52.156;5.382;2023-04-19T00:21:35;13.90;;;6.53;;
26042;SDS011;13818;52.156;5.382;2023-04-19T00:24:01;16.02;;;6.97;;
26042;SDS011;13818;52.156;5.382;2023-04-19T00:26:28;13.88;;;5.88;;
26042;SDS011;13818;52.156;5.382;2023-04-19T00:28:54;13.15;;;6.65;;
26042;SDS011;13818;52.156;5.382;2023-04-19T00:31:21;12.55;;;6.35;;
26042;SDS011;13818;52.156;5.382;2023-04-19T00:33:47;15.48;;;6.78;;
26042;SDS011;13818;52.156;5.382;2023-04-19T00:36:15;11.18;;;6.20;;
26042;SDS011;13818;52.156;5.382;2023-04-19T00:38:42;14.88;;;7.03;;
26042;SDS011;13818;52.156;5.382;2023-04-19T00:41:08;12.05;;;6.25;;
26042;SDS011;13818;52.156;5.382;2023-04-19T00:43:34;15.60;;;7.85;;
26042;SDS011;13818;52.156;5.382;2023-04-19T00:46:01;15.52;;;6.40;;
26042;SDS011;13818;52.156;5.382;2023-04-19T00:48:28;16.17;;;6.80;;
26042;SDS011;13818;52.156;5.382;2023-04-19T00:50:55;14.52;;;6.70;;
26042;SDS011;13818;52.156;5.382;2023-04-19T00:53:22;19.75;;;7.53;;
26042;SDS011;13818;52.156;5.382;2023-04-19T00:55:49;15.48;;;6.43;;
26042;SDS011;13818;52.156;5.382;2023-04-19T00:58:16;15.40;;;7.05;;
26042;SDS011;13818;52.156;5.382;2023-04-19T01:00:43;12.88;;;6.90;;
26042;SDS011;13818;52.156;5.382;2023-04-19T01:03:09;21.73;;;6.55;;
26042;SDS011;13818;52.156;5.382;2023-04-19T01:05:37;14.60;;;6.55;;
26042;SDS011;13818;52.156;5.382;2023-04-19T01:08:04;15.75;;;7.05;;
26042;SDS011;13818;52.156;5.382;2023-04-19T01:10:33;16.80;;;7.90;;
26042;SDS011;13818;52.156;5.382;2023-04-19T01:13:00;19.73;;;7.90;;
26042;SDS011;13818;52.156;5.382;2023-04-19T01:15:27;18.48;;;7.65;;
26042;SDS011;13818;52.156;5.382;2023-04-19T01:17:53;19.60;;;7.78;;
26042;SDS011;13818;52.156;5.382;2023-04-19T01:20:20;15.60;;;8.02;;
26042;SDS011;13818;52.156;5.382;2023-04-19T01:22:48;16.48;;;6.95;;
26042;SDS011;13818;52.156;5.382;2023-04-19T01:25:14;19.60;;;7.47;;
26042;SDS011;13818;52.156;5.382;2023-04-19T01:27:41;15.18;;;8.15;;
26042;SDS011;13818;52.156;5.382;2023-04-19T01:30:08;18.20;;;7.47;;
26042;SDS011;13818;52.156;5.382;2023-04-19T01:32:35;15.60;;;7.50;;
26042;SDS011;13818;52.156;5.382;2023-04-19T01:35:02;14.95;;;7.68;;
26042;SDS011;13818;52.156;5.382;2023-04-19T01:37:29;15.27;;;7.50;;
26042;SDS011;13818;52.156;5.382;2023-04-19T01:39:57;13.65;;;7.10;;
26042;SDS011;13818;52.156;5.382;2023-04-19T01:42:24;16.75;;;8.02;;
26042;SDS011;13818;52.156;5.382;2023-04-19T01:44:50;15.23;;;7.50;;
26042;SDS011;13818;52.156;5.382;2023-04-19T01:47:17;19.52;;;9.13;;
26042;SDS011;13818;52.156;5.382;2023-04-19T01:49:43;22.17;;;8.25;;
26042;SDS011;13818;52.156;5.382;2023-04-19T01:52:10;19.42;;;8.63;;
26042;SDS011;13818;52.156;5.382;2023-04-19T01:54:36;17.88;;;7.95;;
26042;SDS011;13818;52.156;5.382;2023-04-19T01:57:04;21.40;;;9.18;;
26042;SDS011;13818;52.156;5.382;2023-04-19T01:59:30;17.67;;;7.88;;
26042;SDS011;13818;52.156;5.382;2023-04-19T02:01:57;18.00;;;7.63;;
26042;SDS011;13818;52.156;5.382;2023-04-19T02:04:23;16.30;;;7.93;;
26042;SDS011;13818;52.156;5.382;2023-04-19T02:06:50;18.63;;;7.35;;
26042;SDS011;13818;52.156;5.382;2023-04-19T02:09:17;19.58;;;7.90;;
26042;SDS011;13818;52.156;5.382;2023-04-19T02:11:43;18.58;;;8.63;;
26042;SDS011;13818;52.156;5.382;2023-04-19T02:14:11;19.42;;;8.68;;
26042;SDS011;13818;52.156;5.382;2023-04-19T02:16:37;17.25;;;7.97;;
26042;SDS011;13818;52.156;5.382;2023-04-19T02:19:04;18.02;;;7.90;;
26042;SDS011;13818;52.156;5.382;2023-04-19T02:21:30;20.58;;;8.68;;
26042;SDS011;13818;52.156;5.382;2023-04-19T02:23:57;18.60;;;8.68;;
26042;SDS011;13818;52.156;5.382;2023-04-19T02:26:23;17.42;;;7.78;;
26042;SDS011;13818;52.156;5.382;2023-04-19T02:28:50;18.73;;;7.45;;
26042;SDS011;13818;52.156;5.382;2023-04-19T02:31:19;17.95;;;7.88;;
26042;SDS011;13818;52.156;5.382;2023-04-19T02:33:45;22.27;;;8.05;;
26042;SDS011;13818;52.156;5.382;2023-04-19T02:36:12;18.23;;;7.97;;
26042;SDS011;13818;52.156;5.382;2023-04-19T02:38:38;16.13;;;7.68;;
26042;SDS011;13818;52.156;5.382;2023-04-19T02:41:05;24.25;;;9.43;;
26042;SDS011;13818;52.156;5.382;2023-04-19T02:43:32;17.33;;;7.10;;
26042;SDS011;13818;52.156;5.382;2023-04-19T02:45:58;12.68;;;6.13;;
26042;SDS011;13818;52.156;5.382;2023-04-19T02:48:26;17.05;;;7.82;;
26042;SDS011;13818;52.156;5.382;2023-04-19T02:50:52;18.10;;;8.52;;
26042;SDS011;13818;52.156;5.382;2023-04-19T02:53:19;16.95;;;7.47;;
26042;SDS011;13818;52.156;5.382;2023-04-19T02:55:46;16.75;;;7.63;;
26042;SDS011;13818;52.156;5.382;2023-04-19T02:58:12;18.25;;;8.15;;
26042;SDS011;13818;52.156;5.382;2023-04-19T03:00:39;16.02;;;7.78;;
26042;SDS011;13818;52.156;5.382;2023-04-19T03:03:05;14.27;;;7.32;;
26042;SDS011;13818;52.156;5.382;2023-04-19T03:05:34;16.52;;;7.40;;
26042;SDS011;13818;52.156;5.382;2023-04-19T03:08:01;16.65;;;8.10;;
26042;SDS011;13818;52.156;5.382;2023-04-19T03:10:27;16.20;;;7.00;;
26042;SDS011;13818;52.156;5.382;2023-04-19T03:12:54;15.95;;;7.40;;
26042;SDS011;13818;52.156;5.382;2023-04-19T03:15:20;18.50;;;7.57;;
26042;SDS011;13818;52.156;5.382;2023-04-19T03:17:47;16.88;;;7.57;;
26042;SDS011;13818;52.156;5.382;2023-04-19T03:20:13;14.90;;;6.90;;
26042;SDS011;13818;52.156;5.382;2023-04-19T03:22:42;12.93;;;6.53;;
26042;SDS011;13818;52.156;5.382;2023-04-19T03:25:08;17.08;;;6.72;;
26042;SDS011;13818;52.156;5.382;2023-04-19T03:27:37;14.37;;;6.70;;
26042;SDS011;13818;52.156;5.382;2023-04-19T03:30:04;15.63;;;7.15;;
26042;SDS011;13818;52.156;5.382;2023-04-19T03:32:32;16.83;;;6.15;;
26042;SDS011;13818;52.156;5.382;2023-04-19T03:34:59;15.73;;;6.72;;
26042;SDS011;13818;52.156;5.382;2023-04-19T03:37:25;17.65;;;7.05;;
26042;SDS011;13818;52.156;5.382;2023-04-19T03:39:53;12.25;;;5.68;;
26042;SDS011;13818;52.156;5.382;2023-04-19T03:42:19;13.00;;;5.97;;
26042;SDS011;13818;52.156;5.382;2023-04-19T03:44:46;16.17;;;6.68;;
26042;SDS011;13818;52.156;5.382;2023-04-19T03:47:12;14.93;;;6.80;;
26042;SDS011;13818;52.156;5.382;2023-04-19T03:49:39;12.75;;;6.18;;
26042;SDS011;13818;52.156;5.382;2023-04-19T03:52:06;11.55;;;5.97;;
26042;SDS011;13818;52.156;5.382;2023-04-19T03:54:33;15.55;;;5.82;;
26042;SDS011;13818;52.156;5.382;2023-04-19T03:57:01;13.82;;;5.65;;
26042;SDS011;13818;52.156;5.382;2023-04-19T03:59:28;13.05;;;6.07;;
26042;SDS011;13818;52.156;5.382;2023-04-19T04:01:54;12.57;;;5.50;;
26042;SDS011;13818;52.156;5.382;2023-04-19T04:04:21;11.65;;;6.43;;
26042;SDS011;13818;52.156;5.382;2023-04-19T04:06:47;13.52;;;5.90;;
26042;SDS011;13818;52.156;5.382;2023-04-19T04:09:14;11.85;;;5.45;;
26042;SDS011;13818;52.156;5.382;2023-04-19T04:11:41;12.65;;;6.00;;
26042;SDS011;13818;52.156;5.382;2023-04-19T04:14:08;13.98;;;5.85;;
26042;SDS011;13818;52.156;5.382;2023-04-19T04:16:35;11.88;;;5.60;;
26042;SDS011;13818;52.156;5.382;2023-04-19T04:19:01;14.13;;;6.10;;
26042;SDS011;13818;52.156;5.382;2023-04-19T04:21:28;11.77;;;5.70;;
26042;SDS011;13818;52.156;5.382;2023-04-19T04:23:54;14.10;;;5.13;;
26042;SDS011;13818;52.156;5.382;2023-04-19T04:26:21;15.50;;;6.22;;
26042;SDS011;13818;52.156;5.382;2023-04-19T04:28:49;10.67;;;4.70;;
26042;SDS011;13818;52.156;5.382;2023-04-19T04:31:17;15.10;;;5.63;;
26042;SDS011;13818;52.156;5.382;2023-04-19T04:33:43;12.25;;;5.78;;
26042;SDS011;13818;52.156;5.382;2023-04-19T04:36:10;12.43;;;5.55;;
26042;SDS011;13818;52.156;5.382;2023-04-19T04:38:37;13.18;;;6.15;;
26042;SDS011;13818;52.156;5.382;2023-04-19T04:41:04;10.82;;;4.97;;
26042;SDS011;13818;52.156;5.382;2023-04-19T04:43:31;13.90;;;6.68;;
26042;SDS011;13818;52.156;5.382;2023-04-19T04:45:59;11.52;;;5.40;;
26042;SDS011;13818;52.156;5.382;2023-04-19T04:48:27;11.88;;;5.95;;
26042;SDS011;13818;52.156;5.382;2023-04-19T04:50:55;12.60;;;5.65;;
26042;SDS011;13818;52.156;5.382;2023-04-19T04:53:21;11.80;;;5.68;;
26042;SDS011;13818;52.156;5.382;2023-04-19T04:55:51;11.63;;;5.88;;
26042;SDS011;13818;52.156;5.382;2023-04-19T04:58:17;10.95;;;5.90;;
26042;SDS011;13818;52.156;5.382;2023-04-19T05:00:44;13.25;;;5.22;;
26042;SDS011;13818;52.156;5.382;2023-04-19T05:03:12;13.27;;;6.13;;
26042;SDS011;13818;52.156;5.382;2023-04-19T05:05:41;11.52;;;5.55;;
26042;SDS011;13818;52.156;5.382;2023-04-19T05:08:07;12.45;;;6.18;;
26042;SDS011;13818;52.156;5.382;2023-04-19T05:10:33;11.63;;;5.10;;
26042;SDS011;13818;52.156;5.382;2023-04-19T05:13:00;12.82;;;6.57;;
26042;SDS011;13818;52.156;5.382;2023-04-19T05:15:27;13.55;;;5.60;;
26042;SDS011;13818;52.156;5.382;2023-04-19T05:17:54;11.98;;;5.28;;
26042;SDS011;13818;52.156;5.382;2023-04-19T05:20:20;12.65;;;5.93;;
26042;SDS011;13818;52.156;5.382;2023-04-19T05:22:48;14.98;;;6.18;;
26042;SDS011;13818;52.156;5.382;2023-04-19T05:25:14;11.68;;;5.43;;
26042;SDS011;13818;52.156;5.382;2023-04-19T05:27:41;13.18;;;5.75;;
26042;SDS011;13818;52.156;5.382;2023-04-19T05:30:08;17.27;;;5.63;;
26042;SDS011;13818;52.156;5.382;2023-04-19T05:32:34;13.05;;;5.57;;
26042;SDS011;13818;52.156;5.382;2023-04-19T05:35:01;12.55;;;5.35;;
26042;SDS011;13818;52.156;5.382;2023-04-19T05:37:28;10.00;;;5.22;;
26042;SDS011;13818;52.156;5.382;2023-04-19T05:39:56;10.40;;;5.03;;
26042;SDS011;13818;52.156;5.382;2023-04-19T05:42:22;11.15;;;5.57;;
26042;SDS011;13818;52.156;5.382;2023-04-19T05:44:49;11.75;;;4.97;;
26042;SDS011;13818;52.156;5.382;2023-04-19T05:47:15;12.65;;;4.93;;
26042;SDS011;13818;52.156;5.382;2023-04-19T05:49:42;12.57;;;5.20;;
26042;SDS011;13818;52.156;5.382;2023-04-19T05:52:08;14.18;;;4.65;;
26042;SDS011;13818;52.156;5.382;2023-04-19T05:54:36;9.60;;;3.92;;
26042;SDS011;13818;52.156;5.382;2023-04-19T05:57:04;8.55;;;4.85;;
26042;SDS011;13818;52.156;5.382;2023-04-19T05:59:31;10.70;;;4.93;;
26042;SDS011;13818;52.156;5.382;2023-04-19T06:01:58;12.30;;;5.03;;
26042;SDS011;13818;52.156;5.382;2023-04-19T06:04:25;12.32;;;4.80;;
26042;SDS011;13818;52.156;5.382;2023-04-19T06:06:51;11.45;;;4.70;;
26042;SDS011;13818;52.156;5.382;2023-04-19T06:09:18;7.28;;;4.22;;
26042;SDS011;13818;52.156;5.382;2023-04-19T06:11:45;8.80;;;4.35;;
26042;SDS011;13818;52.156;5.382;2023-04-19T06:14:13;11.05;;;4.65;;
26042;SDS011;13818;52.156;5.382;2023-04-19T06:16:39;14.57;;;4.93;;
26042;SDS011;13818;52.156;5.382;2023-04-19T06:19:06;9.05;;;4.05;;
26042;SDS011;13818;52.156;5.382;2023-04-19T06:21:33;9.75;;;4.50;;
26042;SDS011;13818;52.156;5.382;2023-04-19T06:23:59;7.25;;;3.00;;
26042;SDS011;13818;52.156;5.382;2023-04-19T06:26:26;9.13;;;4.93;;
26042;SDS011;13818;52.156;5.382;2023-04-19T06:28:53;13.02;;;4.40;;
26042;SDS011;13818;52.156;5.382;2023-04-19T06:31:21;7.90;;;3.83;;
26042;SDS011;13818;52.156;5.382;2023-04-19T06:33:47;7.70;;;3.60;;
26042;SDS011;13818;52.156;5.382;2023-04-19T06:36:14;8.48;;;3.88;;
26042;SDS011;13818;52.156;5.382;2023-04-19T06:38:41;6.80;;;2.70;;
26042;SDS011;13818;52.156;5.382;2023-04-19T06:41:08;6.65;;;3.45;;
26042;SDS011;13818;52.156;5.382;2023-04-19T06:43:35;10.10;;;3.33;;
26042;SDS011;13818;52.156;5.382;2023-04-19T06:46:03;8.35;;;3.50;;
26042;SDS011;13818;52.156;5.382;2023-04-19T06:48:32;8.63;;;3.20;;
26042;SDS011;13818;52.156;5.382;2023-04-19T06:53:26;7.15;;;3.30;;
26042;SDS011;13818;52.156;5.382;2023-04-19T06:55:57;6.40;;;3.03;;
26042;SDS011;13818;52.156;5.382;2023-04-19T06:58:25;8.80;;;3.58;;
26042;SDS011;13818;52.156;5.382;2023-04-19T07:00:52;3.90;;;2.50;;
26042;SDS011;13818;52.156;5.382;2023-04-19T07:03:19;5.55;;;2.63;;
26042;SDS011;13818;52.156;5.382;2023-04-19T07:05:47;4.75;;;2.35;;
26042;SDS011;13818;52.156;5.382;2023-04-19T07:08:15;7.05;;;2.80;;
26042;SDS011;13818;52.156;5.382;2023-04-19T07:10:41;5.63;;;2.50;;
26042;SDS011;13818;52.156;5.382;2023-04-19T07:13:08;5.85;;;2.55;;
26042;SDS011;13818;52.156;5.382;2023-04-19T07:15:35;4.30;;;2.40;;
26042;SDS011;13818;52.156;5.382;2023-04-19T07:18:02;7.68;;;3.00;;
26042;SDS011;13818;52.156;5.382;2023-04-19T07:20:30;6.13;;;2.80;;
26042;SDS011;13818;52.156;5.382;2023-04-19T07:22:57;7.32;;;2.97;;
26042;SDS011;13818;52.156;5.382;2023-04-19T07:25:24;6.47;;;2.78;;
26042;SDS011;13818;52.156;5.382;2023-04-19T07:27:51;4.28;;;2.67;;
26042;SDS011;13818;52.156;5.382;2023-04-19T07:30:18;5.05;;;2.22;;
26042;SDS011;13818;52.156;5.382;2023-04-19T07:32:45;5.20;;;2.10;;
26042;SDS011;13818;52.156;5.382;2023-04-19T07:35:11;3.25;;;1.85;;
26042;SDS011;13818;52.156;5.382;2023-04-19T07:37:38;3.70;;;2.28;;
26042;SDS011;13818;52.156;5.382;2023-04-19T07:40:07;4.15;;;2.47;;
26042;SDS011;13818;52.156;5.382;2023-04-19T07:45:00;5.65;;;2.80;;
26042;SDS011;13818;52.156;5.382;2023-04-19T07:47:27;5.30;;;2.30;;
26042;SDS011;13818;52.156;5.382;2023-04-19T07:49:53;3.17;;;1.90;;
26042;SDS011;13818;52.156;5.382;2023-04-19T07:52:20;6.47;;;2.60;;
26042;SDS011;13818;52.156;5.382;2023-04-19T07:54:47;5.10;;;2.30;;
26042;SDS011;13818;52.156;5.382;2023-04-19T07:57:15;3.95;;;2.25;;
26042;SDS011;13818;52.156;5.382;2023-04-19T07:59:41;4.93;;;2.15;;
26042;SDS011;13818;52.156;5.382;2023-04-19T08:02:08;4.53;;;1.88;;
26042;SDS011;13818;52.156;5.382;2023-04-19T08:04:34;3.58;;;2.03;;
26042;SDS011;13818;52.156;5.382;2023-04-19T08:07:01;3.40;;;2.20;;
26042;SDS011;13818;52.156;5.382;2023-04-19T08:09:28;5.70;;;2.25;;
26042;SDS011;13818;52.156;5.382;2023-04-19T08:11:55;4.15;;;1.80;;
26042;SDS011;13818;52.156;5.382;2023-04-19T08:14:23;5.35;;;2.47;;
26042;SDS011;13818;52.156;5.382;2023-04-19T08:16:50;4.50;;;2.08;;
26042;SDS011;13818;52.156;5.382;2023-04-19T08:19:16;4.20;;;1.92;;
26042;SDS011;13818;52.156;5.382;2023-04-19T08:21:43;3.47;;;1.52;;
26042;SDS011;13818;52.156;5.382;2023-04-19T08:24:09;3.67;;;1.52;;
26042;SDS011;13818;52.156;5.382;2023-04-19T08:26:36;7.63;;;2.40;;
26042;SDS011;13818;52.156;5.382;2023-04-19T08:29:04;7.35;;;1.88;;
26042;SDS011;13818;52.156;5.382;2023-04-19T08:31:31;5.63;;;1.80;;
26042;SDS011;13818;52.156;5.382;2023-04-19T08:33:58;5.32;;;2.28;;
26042;SDS011;13818;52.156;5.382;2023-04-19T08:36:26;3.95;;;1.67;;
26042;SDS011;13818;52.156;5.382;2023-04-19T08:38:53;5.38;;;1.88;;
26042;SDS011;13818;52.156;5.382;2023-04-19T08:41:20;4.53;;;1.90;;
26042;SDS011;13818;52.156;5.382;2023-04-19T08:43:47;4.47;;;1.83;;
26042;SDS011;13818;52.156;5.382;2023-04-19T08:46:18;3.45;;;1.80;;
26042;SDS011;13818;52.156;5.382;2023-04-19T08:48:46;4.07;;;1.63;;
26042;SDS011;13818;52.156;5.382;2023-04-19T08:51:13;2.42;;;1.52;;
26042;SDS011;13818;52.156;5.382;2023-04-19T08:56:10;2.42;;;1.20;;
26042;SDS011;13818;52.156;5.382;2023-04-19T08:58:37;1.73;;;0.98;;
26042;SDS011;13818;52.156;5.382;2023-04-19T09:01:04;3.15;;;1.35;;
26042;SDS011;13818;52.156;5.382;2023-04-19T09:03:32;2.55;;;1.17;;
26042;SDS011;13818;52.156;5.382;2023-04-19T09:06:00;2.67;;;1.52;;
26042;SDS011;13818;52.156;5.382;2023-04-19T09:08:27;3.40;;;0.95;;
26042;SDS011;13818;52.156;5.382;2023-04-19T09:10:56;5.38;;;1.20;;
26042;SDS011;13818;52.156;5.382;2023-04-19T09:13:24;2.90;;;0.95;;
26042;SDS011;13818;52.156;5.382;2023-04-19T09:15:51;2.10;;;0.90;;
26042;SDS011;13818;52.156;5.382;2023-04-19T09:18:21;1.83;;;0.70;;
26042;SDS011;13818;52.156;5.382;2023-04-19T09:20:50;2.58;;;1.00;;
26042;SDS011;13818;52.156;5.382;2023-04-19T09:23:23;3.00;;;1.38;;
26042;SDS011;13818;52.156;5.382;2023-04-19T09:25:51;2.40;;;1.08;;
26042;SDS011;13818;52.156;5.382;2023-04-19T09:28:19;2.13;;;1.05;;
26042;SDS011;13818;52.156;5.382;2023-04-19T09:30:46;2.08;;;1.23;;
26042;SDS011;13818;52.156;5.382;2023-04-19T09:33:14;3.15;;;1.27;;
26042;SDS011;13818;52.156;5.382;2023-04-19T09:35:57;4.35;;;0.82;;
26042;SDS011;13818;52.156;5.382;2023-04-19T09:38:25;3.47;;;0.90;;
26042;SDS011;13818;52.156;5.382;2023-04-19T09:40:52;2.22;;;1.10;;
26042;SDS011;13818;52.156;5.382;2023-04-19T09:43:31;5.60;;;1.63;;
26042;SDS011;13818;52.156;5.382;2023-04-19T09:45:58;3.03;;;1.20;;
26042;SDS011;13818;52.156;5.382;2023-04-19T09:48:25;2.55;;;0.90;;
26042;SDS011;13818;52.156;5.382;2023-04-19T09:50:52;3.65;;;1.30;;
26042;SDS011;13818;52.156;5.382;2023-04-19T09:53:19;2.40;;;1.25;;
26042;SDS011;13818;52.156;5.382;2023-04-19T09:55:48;2.97;;;1.30;;
26042;SDS011;13818;52.156;5.382;2023-04-19T09:58:15;4.60;;;1.23;;
26042;SDS011;13818;52.156;5.382;2023-04-19T10:00:42;3.00;;;0.98;;
26042;SDS011;13818;52.156;5.382;2023-04-19T10:05:38;3.25;;;1.13;;
26042;SDS011;13818;52.156;5.382;2023-04-19T10:08:06;3.75;;;1.55;;
26042;SDS011;13818;52.156;5.382;2023-04-19T10:10:34;2.08;;;0.98;;
26042;SDS011;13818;52.156;5.382;2023-04-19T10:13:03;2.85;;;1.23;;
26042;SDS011;13818;52.156;5.382;2023-04-19T10:15:32;4.25;;;1.38;;
26042;SDS011;13818;52.156;5.382;2023-04-19T10:18:00;4.63;;;1.52;;
26042;SDS011;13818;52.156;5.382;2023-04-19T10:20:29;2.80;;;1.45;;
26042;SDS011;13818;52.156;5.382;2023-04-19T10:23:01;3.33;;;1.20;;
26042;SDS011;13818;52.156;5.382;2023-04-19T10:25:28;2.15;;;1.00;;
26042;SDS011;13818;52.156;5.382;2023-04-19T10:27:57;2.13;;;1.25;;
26042;SDS011;13818;52.156;5.382;2023-04-19T10:30:25;1.63;;;0.90;;
26042;SDS011;13818;52.156;5.382;2023-04-19T10:32:52;3.03;;;0.95;;
26042;SDS011;13818;52.156;5.382;2023-04-19T10:35:21;4.55;;;0.80;;
26042;SDS011;13818;52.156;5.382;2023-04-19T10:38:01;2.13;;;0.87;;
26042;SDS011;13818;52.156;5.382;2023-04-19T10:43:21;7.38;;;1.00;;
26042;SDS011;13818;52.156;5.382;2023-04-19T10:45:50;3.25;;;0.95;;
26042;SDS011;13818;52.156;5.382;2023-04-19T10:48:32;1.95;;;0.80;;
26042;SDS011;13818;52.156;5.382;2023-04-19T10:51:03;3.25;;;1.05;;
26042;SDS011;13818;52.156;5.382;2023-04-19T10:53:44;2.85;;;1.23;;
26042;SDS011;13818;52.156;5.382;2023-04-19T10:56:17;2.92;;;1.30;;
26042;SDS011;13818;52.156;5.382;2023-04-19T11:01:51;4.38;;;1.27;;
26042;SDS011;13818;52.156;5.382;2023-04-19T11:04:20;2.28;;;1.00;;
26042;SDS011;13818;52.156;5.382;2023-04-19T11:06:59;6.47;;;1.30;;
26042;SDS011;13818;52.156;5.382;2023-04-19T11:09:28;4.78;;;1.55;;
26042;SDS011;13818;52.156;5.382;2023-04-19T11:11:59;3.03;;;1.40;;
26042;SDS011;13818;52.156;5.382;2023-04-19T11:14:30;3.55;;;1.40;;
26042;SDS011;13818;52.156;5.382;2023-04-19T11:17:02;2.20;;;1.10;;
26042;SDS011;13818;52.156;5.382;2023-04-19T11:22:05;4.22;;;1.48;;
26042;SDS011;13818;52.156;5.382;2023-04-19T11:24:31;3.60;;;1.05;;
26042;SDS011;13818;52.156;5.382;2023-04-19T11:27:00;3.47;;;1.13;;
26042;SDS011;13818;52.156;5.382;2023-04-19T11:29:33;2.85;;;1.15;;
26042;SDS011;13818;52.156;5.382;2023-04-19T11:32:01;3.00;;;1.33;;
26042;SDS011;13818;52.156;5.382;2023-04-19T11:34:27;1.98;;;1.02;;
26042;SDS011;13818;52.156;5.382;2023-04-19T11:36:54;4.72;;;1.70;;
26042;SDS011;13818;52.156;5.382;2023-04-19T11:39:21;3.00;;;1.50;;
26042;SDS011;13818;52.156;5.382;2023-04-19T11:41:47;3.78;;;1.55;;
26042;SDS011;13818;52.156;5.382;2023-04-19T11:44:14;5.60;;;1.33;;
26042;SDS011;13818;52.156;5.382;2023-04-19T11:46:56;4.30;;;1.50;;
26042;SDS011;13818;52.156;5.382;2023-04-19T11:49:32;7.25;;;1.48;;
26042;SDS011;13818;52.156;5.382;2023-04-19T11:52:00;4.10;;;1.38;;
26042;SDS011;13818;52.156;5.382;2023-04-19T11:54:30;4.15;;;1.92;;
26042;SDS011;13818;52.156;5.382;2023-04-19T11:57:00;2.58;;;1.40;;
26042;SDS011;13818;52.156;5.382;2023-04-19T11:59:28;2.97;;;1.50;;
26042;SDS011;13818;52.156;5.382;2023-04-19T12:02:03;3.03;;;1.58;;
26042;SDS011;13818;52.156;5.382;2023-04-19T12:04:31;2.90;;;1.73;;
26042;SDS011;13818;52.156;5.382;2023-04-19T12:06:59;2.75;;;1.27;;
26042;SDS011;13818;52.156;5.382;2023-04-19T12:09:27;3.07;;;1.57;;
26042;SDS011;13818;52.156;5.382;2023-04-19T12:11:54;3.58;;;1.85;;
26042;SDS011;13818;52.156;5.382;2023-04-19T12:14:21;4.28;;;2.05;;
26042;SDS011;13818;52.156;5.382;2023-04-19T12:17:03;1.85;;;1.23;;
26042;SDS011;13818;52.156;5.382;2023-04-19T12:19:36;4.90;;;2.20;;
26042;SDS011;13818;52.156;5.382;2023-04-19T12:22:08;4.28;;;1.60;;
26042;SDS011;13818;52.156;5.382;2023-04-19T12:24:36;6.38;;;2.08;;
26042;SDS011;13818;52.156;5.382;2023-04-19T12:27:04;4.35;;;1.92;;
26042;SDS011;13818;52.156;5.382;2023-04-19T12:29:31;7.63;;;2.13;;
26042;SDS011;13818;52.156;5.382;2023-04-19T12:31:58;4.38;;;1.80;;
26042;SDS011;13818;52.156;5.382;2023-04-19T12:34:25;2.25;;;1.52;;
26042;SDS011;13818;52.156;5.382;2023-04-19T12:36:52;3.38;;;1.88;;
26042;SDS011;13818;52.156;5.382;2023-04-19T12:39:19;5.80;;;1.83;;
26042;SDS011;13818;52.156;5.382;2023-04-19T12:41:45;6.13;;;1.58;;
26042;SDS011;13818;52.156;5.382;2023-04-19T12:44:13;4.00;;;1.73;;
26042;SDS011;13818;52.156;5.382;2023-04-19T12:46:39;5.18;;;1.30;;
26042;SDS011;13818;52.156;5.382;2023-04-19T12:49:06;3.78;;;1.85;;
26042;SDS011;13818;52.156;5.382;2023-04-19T12:51:32;2.60;;;1.52;;
26042;SDS011;13818;52.156;5.382;2023-04-19T12:54:01;2.83;;;1.45;;
26042;SDS011;13818;52.156;5.382;2023-04-19T12:56:28;1.73;;;1.30;;
26042;SDS011;13818;52.156;5.382;2023-04-19T12:58:54;3.15;;;1.45;;
26042;SDS011;13818;52.156;5.382;2023-04-19T13:01:21;4.68;;;1.70;;
26042;SDS011;13818;52.156;5.382;2023-04-19T13:03:47;5.40;;;1.70;;
26042;SDS011;13818;52.156;5.382;2023-04-19T13:06:14;2.53;;;1.50;;
26042;SDS011;13818;52.156;5.382;2023-04-19T13:08:41;2.97;;;1.67;;
26042;SDS011;13818;52.156;5.382;2023-04-19T13:11:09;4.13;;;2.05;;
26042;SDS011;13818;52.156;5.382;2023-04-19T13:13:36;4.60;;;1.90;;
26042;SDS011;13818;52.156;5.382;2023-04-19T13:16:03;6.60;;;2.55;;
26042;SDS011;13818;52.156;5.382;2023-04-19T13:18:31;3.92;;;1.95;;
26042;SDS011;13818;52.156;5.382;2023-04-19T13:20:58;3.55;;;1.95;;
26042;SDS011;13818;52.156;5.382;2023-04-19T13:23:24;7.68;;;1.92;;
26042;SDS011;13818;52.156;5.382;2023-04-19T13:25:51;3.88;;;1.48;;
26042;SDS011;13818;52.156;5.382;2023-04-19T13:28:19;3.60;;;2.40;;
26042;SDS011;13818;52.156;5.382;2023-04-19T13:30:45;5.18;;;2.05;;
26042;SDS011;13818;52.156;5.382;2023-04-19T13:33:12;3.60;;;2.25;;
26042;SDS011;13818;52.156;5.382;2023-04-19T13:35:38;3.13;;;1.75;;
26042;SDS011;13818;52.156;5.382;2023-04-19T13:38:06;3.78;;;1.50;;
26042;SDS011;13818;52.156;5.382;2023-04-19T13:40:32;6.60;;;1.67;;
26042;SDS011;13818;52.156;5.382;2023-04-19T13:42:59;3.42;;;1.63;;
26042;SDS011;13818;52.156;5.382;2023-04-19T13:45:27;3.92;;;1.80;;
26042;SDS011;13818;52.156;5.382;2023-04-19T13:47:53;3.80;;;1.63;;
26042;SDS011;13818;52.156;5.382;2023-04-19T13:50:20;3.25;;;1.60;;
26042;SDS011;13818;52.156;5.382;2023-04-19T13:52:46;4.03;;;2.03;;
26042;SDS011;13818;52.156;5.382;2023-04-19T13:55:13;3.22;;;1.92;;
26042;SDS011;13818;52.156;5.382;2023-04-19T13:57:40;2.90;;;1.40;;
26042;SDS011;13818;52.156;5.382;2023-04-19T14:00:07;3.15;;;1.70;;
26042;SDS011;13818;52.156;5.382;2023-04-19T14:02:36;3.20;;;1.65;;
26042;SDS011;13818;52.156;5.382;2023-04-19T14:05:03;2.90;;;1.48;;
26042;SDS011;13818;52.156;5.382;2023-04-19T14:07:30;3.33;;;1.80;;
26042;SDS011;13818;52.156;5.382;2023-04-19T14:09:57;4.30;;;1.50;;
26042;SDS011;13818;52.156;5.382;2023-04-19T14:12:24;3.13;;;1.60;;
26042;SDS011;13818;52.156;5.382;2023-04-19T14:14:51;4.70;;;1.30;;
26042;SDS011;13818;52.156;5.382;2023-04-19T14:17:18;4.68;;;1.95;;
26042;SDS011;13818;52.156;5.382;2023-04-19T14:19:46;4.35;;;1.80;;
26042;SDS011;13818;52.156;5.382;2023-04-19T14:22:13;5.70;;;1.70;;
26042;SDS011;13818;52.156;5.382;2023-04-19T14:24:41;3.25;;;1.63;;
26042;SDS011;13818;52.156;5.382;2023-04-19T14:27:07;4.10;;;1.60;;
26042;SDS011;13818;52.156;5.382;2023-04-19T14:29:34;2.85;;;1.38;;
26042;SDS011;13818;52.156;5.382;2023-04-19T14:32:00;7.55;;;1.40;;
26042;SDS011;13818;52.156;5.382;2023-04-19T14:34:27;8.60;;;1.73;;
26042;SDS011;13818;52.156;5.382;2023-04-19T14:36:55;6.00;;;1.63;;
26042;SDS011;13818;52.156;5.382;2023-04-19T14:39:22;4.97;;;1.63;;
26042;SDS011;13818;52.156;5.382;2023-04-19T14:41:48;3.30;;;1.40;;
26042;SDS011;13818;52.156;5.382;2023-04-19T14:44:16;3.45;;;1.45;;
26042;SDS011;13818;52.156;5.382;2023-04-19T14:46:42;5.97;;;1.77;;
26042;SDS011;13818;52.156;5.382;2023-04-19T14:49:09;6.40;;;1.45;;
26042;SDS011;13818;52.156;5.382;2023-04-19T14:51:36;4.03;;;1.42;;
26042;SDS011;13818;52.156;5.382;2023-04-19T14:54:04;6.43;;;1.65;;
26042;SDS011;13818;52.156;5.382;2023-04-19T14:56:32;4.22;;;1.75;;
26042;SDS011;13818;52.156;5.382;2023-04-19T14:58:59;3.38;;;1.92;;
26042;SDS011;13818;52.156;5.382;2023-04-19T15:01:25;2.53;;;1.25;;
26042;SDS011;13818;52.156;5.382;2023-04-19T15:03:52;3.60;;;1.63;;